Latest Weather Observations for Robe Airport

IDS60801

Issued at 11:35 am CST Thursday 21 August 2014 (issued every 30 minutes, with the page automatically refreshed every 10 minutes)

About weather observations | Map of weather stations | Latest weather observations for SA | Other Formats
Station Details ID: 026105 Name: ROBE AIRFIELD Lat: -37.18 Lon: 139.81 Height: 3.0 m
Data from the previous 72 hours. | See also: Recent months at Robe Airport
Date/Time
CST
Temp
°C
App
Temp
°C
Dew
Point
Rel
Hum
%
Delta-T
°C
Wind Press
QNH
hPa
Press
MSL
hPa
Rain
since 9 am
mm
Dir
 
Spd
km/h
Gust
km/h
Spd
kts
Gust
kts
21/11:30am 12.8 9.5 4.5 57 3.8 NE 11 17 6 9 1028.0 1028.0 0.0
21/11:00am 12.5 10.0 3.7 55 3.9 NNE 6 11 3 6 1028.3 1028.3 0.0
21/10:30am 12.8 10.2 4.0 55 3.9 NNE 7 13 4 7 1028.5 1028.5 0.0
21/10:00am 12.1 9.6 4.8 61 3.3 NE 7 11 4 6 1028.6 1028.6 0.0
21/09:30am 12.0 10.2 5.6 65 3.0 ENE 4 7 2 4 1028.7 1028.7 0.0
21/09:00am 10.6 8.7 6.7 77 1.8 ENE 6 7 3 4 1028.9 1028.9 0.0
21/08:30am 8.7 8.1 7.2 90 0.7 CALM 0 6 0 3 1028.7 1028.7 0.0
21/08:00am 7.3 6.5 6.6 95 0.3 CALM 0 0 0 0 1028.7 1028.7 0.0
21/07:30am 6.6 5.7 6.0 96 0.3 CALM 0 0 0 0 1028.7 1028.7 0.0
21/07:00am 6.3 4.9 5.6 95 0.3 S 2 4 1 2 1028.5 1028.5 0.0
21/06:30am 6.2 5.2 5.6 96 0.3 CALM 0 0 0 0 1028.3 1028.3 0.0
21/06:00am 5.8 4.7 5.2 96 0.3 CALM 0 0 0 0 1028.0 1028.0 0.0
21/05:30am 5.8 4.7 5.2 96 0.3 CALM 0 0 0 0 1027.9 1027.9 0.0
21/05:00am 5.7 4.6 5.1 96 0.3 CALM 0 0 0 0 1027.8 1027.8 0.0
21/04:30am 5.5 4.4 5.1 97 0.2 CALM 0 0 0 0 1027.8 1027.8 0.0
21/04:00am 5.4 3.9 5.0 97 0.2 ESE 2 4 1 2 1027.8 1027.8 0.0
21/03:30am 4.9 2.5 4.5 97 0.2 ESE 6 7 3 4 1027.8 1027.8 0.0
21/03:00am 3.4 1.1 2.8 96 0.2 ESE 4 6 2 3 1027.9 1027.9 0.0
21/02:30am 2.5 0.8 1.6 94 0.3 CALM 0 0 0 0 1028.0 1028.0 0.0
21/02:00am 4.3 2.9 3.7 96 0.2 CALM 0 0 0 0 1028.2 1028.2 0.0
21/01:30am 4.0 2.5 3.1 94 0.4 CALM 0 0 0 0 1028.1 1028.1 0.0
21/01:00am 4.8 3.5 3.9 94 0.4 CALM 0 0 0 0 1028.3 1028.3 0.0
21/12:30am 5.3 2.9 4.3 93 0.4 SE 6 9 3 5 1028.3 1028.3 0.0
21/12:00am 5.3 3.3 4.3 93 0.4 SE 4 7 2 4 1028.4 1028.4 0.0
 
Date/Time
CST
Temp
°C
App
Temp
°C
Dew
Point
Rel
Hum
%
Delta-T
°C
Wind Press
QNH
hPa
Press
MSL
hPa
Rain
since 9 am
mm
Dir
 
Spd
km/h
Gust
km/h
Spd
kts
Gust
kts
20/11:30pm 5.5 3.1 4.3 92 0.5 SE 6 7 3 4 1028.4 1028.4 0.0
20/11:00pm 6.0 3.7 4.6 91 0.6 SSE 6 7 3 4 1028.5 1028.5 0.0
20/10:30pm 6.7 4.3 5.2 90 0.7 SE 7 9 4 5 1028.6 1028.6 0.0
20/10:00pm 6.6 4.4 5.4 92 0.5 SSE 6 7 3 4 1028.7 1028.7 0.0
20/09:30pm 6.6 4.5 5.6 93 0.4 SE 6 7 3 4 1028.5 1028.5 0.0
20/09:00pm 6.4 4.6 5.2 92 0.5 S 4 4 2 2 1028.4 1028.4 0.0
20/08:30pm 7.2 5.0 5.5 89 0.8 S 6 7 3 4 1028.3 1028.3 0.0
20/08:00pm 8.2 6.2 6.3 88 0.9 SE 6 9 3 5 1028.2 1028.2 0.0
20/07:30pm 8.6 6.5 6.6 87 0.9 SSE 7 11 4 6 1028.1 1028.1 0.0
20/07:00pm 9.0 6.9 6.6 85 1.1 SSE 7 9 4 5 1028.1 1028.1 0.0
20/06:30pm 10.3 8.5 7.9 85 1.1 S 7 9 4 5 1028.1 1028.1 0.0
20/06:00pm 10.7 8.9 7.9 83 1.3 S 7 9 4 5 1028.0 1028.0 0.0
20/05:30pm 10.9 9.0 7.6 80 1.6 S 7 11 4 6 1027.9 1027.9 0.0
20/05:00pm 11.6 8.5 7.1 74 2.2 SSE 13 19 7 10 1027.9 1027.9 0.0
20/04:30pm 11.7 8.2 7.0 73 2.2 S 15 19 8 10 1027.9 1027.9 0.0
20/04:00pm 11.9 8.1 7.6 75 2.1 S 17 20 9 11 1027.8 1027.8 0.0
20/03:30pm 12.2 8.8 7.5 73 2.3 S 15 20 8 11 1027.7 1027.7 0.0
20/03:00pm 12.6 9.4 6.9 68 2.7 S 13 19 7 10 1027.6 1027.6 0.0
20/02:30pm 12.6 9.0 6.6 67 2.8 S 15 19 8 10 1027.6 1027.6 0.0
20/02:00pm 13.4 11.3 5.8 60 3.6 SSE 6 11 3 6 1027.6 1027.6 0.0
20/01:30pm 13.3 10.7 4.2 54 4.1 S 7 17 4 9 1027.5 1027.5 0.0
20/01:00pm 13.2 10.7 4.9 57 3.8 S 7 13 4 7 1027.6 1027.6 0.0
20/12:30pm 13.0 10.4 4.4 56 3.9 ESE 7 11 4 6 1028.0 1028.0 0.0
20/12:00pm 12.9 10.6 4.8 58 3.7 E 6 11 3 6 1028.3 1028.3 0.0
20/11:30am 12.5 10.3 5.2 61 3.3 ESE 6 11 3 6 1028.7 1028.7 0.0
20/11:00am 12.5 10.0 5.0 60 3.5 E 7 9 4 5 1028.9 1028.9 0.0
20/10:30am 12.3 9.9 4.5 59 3.5 ESE 6 9 3 5 1028.9 1028.9 0.0
20/10:00am 11.9 9.7 6.0 67 2.8 E 7 11 4 6 1028.8 1028.8 0.0
20/09:30am 11.4 9.4 7.1 75 2.0 E 7 9 4 5 1028.8 1028.8 0.0
20/09:00am 10.9 9.3 7.8 81 1.5 E 6 9 3 5 1028.6 1028.6 0.4
20/08:30am 10.2 8.4 8.1 87 1.0 ENE 7 9 4 5 1028.5 1028.5 0.4
20/08:00am 9.5 8.6 7.9 90 0.8 S 2 4 1 2 1028.1 1028.1 0.4
20/07:30am 9.1 7.8 7.5 90 0.8 SE 4 7 2 4 1027.9 1027.9 0.4
20/07:00am 8.8 8.2 7.3 90 0.7 CALM 0 0 0 0 1027.6 1027.6 0.4
20/06:30am 8.8 7.4 7.1 89 0.8 E 4 7 2 4 1027.2 1027.2 0.4
20/06:00am 8.7 8.1 7.5 92 0.6 CALM 0 0 0 0 1027.1 1027.1 0.4
20/05:30am 9.0 7.1 7.6 91 0.7 E 7 9 4 5 1026.9 1026.9 0.4
20/05:00am 8.9 7.6 7.8 93 0.5 ESE 4 6 2 3 1027.0 1027.0 0.4
20/04:30am 8.6 7.3 7.5 93 0.5 SE 4 4 2 2 1026.8 1026.8 0.4
20/04:00am 8.7 7.4 7.8 94 0.4 SE 4 6 2 3 1027.0 1027.0 0.4
20/03:30am 8.7 7.4 7.8 94 0.4 SSW 4 6 2 3 1026.8 1026.8 0.4
20/03:00am 8.8 7.2 8.0 95 0.4 SW 6 7 3 4 1026.9 1026.9 0.4
20/02:30am 8.8 7.6 8.0 95 0.4 SE 4 4 2 2 1027.0 1027.0 0.4
20/02:00am 8.8 8.0 8.0 95 0.4 SE 2 4 1 2 1027.2 1027.2 0.4
20/01:30am 8.7 7.4 7.8 94 0.4 SE 4 6 2 3 1027.1 1027.1 0.4
20/01:00am 9.1 7.5 8.2 94 0.4 SE 6 6 3 3 1027.2 1027.2 0.4
20/12:30am 9.1 7.3 8.0 93 0.5 SE 7 9 4 5 1027.4 1027.4 0.2
20/12:00am 9.4 7.9 8.3 93 0.5 SSE 6 9 3 5 1027.5 1027.5 0.2
 
Date/Time
CST
Temp
°C
App
Temp
°C
Dew
Point
Rel
Hum
%
Delta-T
°C
Wind Press
QNH
hPa
Press
MSL
hPa
Rain
since 9 am
mm
Dir
 
Spd
km/h
Gust
km/h
Spd
kts
Gust
kts
19/11:30pm 9.2 8.1 8.3 94 0.4 SSE 4 6 2 3 1027.4 1027.4 0.2
19/11:00pm 9.2 6.7 8.4 95 0.4 SSE 11 17 6 9 1027.5 1027.5 0.2
19/10:30pm 9.4 7.0 8.6 95 0.4 SSE 11 17 6 9 1027.6 1027.6 0.2
19/10:00pm 8.8 6.6 8.0 95 0.4 S 9 11 5 6 1027.7 1027.7 0.2
19/09:30pm 8.1 6.1 7.3 95 0.4 S 7 7 4 4 1027.7 1027.7 0.2
19/09:00pm 8.2 6.4 7.1 93 0.5 S 6 7 3 4 1027.6 1027.6 0.2
19/08:30pm 9.1 7.5 7.9 92 0.6 SSE 6 9 3 5 1027.5 1027.5 0.2
19/08:00pm 8.4 6.6 7.0 91 0.7 SE 6 7 3 4 1027.5 1027.5 0.2
19/07:30pm 8.3 5.7 6.1 86 1.0 SSE 9 11 5 6 1027.3 1027.3 0.2
19/07:00pm 9.4 6.3 7.2 86 1.0 SSE 13 19 7 10 1027.2 1027.2 0.2
19/06:30pm 9.8 7.4 7.1 83 1.3 SSE 9 13 5 7 1027.0 1027.0 0.2
19/06:00pm 9.9 8.2 7.7 86 1.0 SSE 6 9 3 5 1026.7 1026.7 0.2
19/05:30pm 10.6 7.7 8.0 84 1.3 S 13 19 7 10 1026.4 1026.4 0.2
19/05:00pm 10.5 8.4 8.4 87 1.0 S 9 15 5 8 1026.1 1026.1 0.2
19/04:30pm 11.2 8.4 8.4 83 1.4 S 13 19 7 10 1025.9 1025.9 0.2
19/04:00pm 12.4 9.0 7.5 72 2.4 S 15 22 8 12 1025.8 1025.8 0.0
19/03:30pm 12.9 8.8 6.0 63 3.2 S 17 24 9 13 1025.7 1025.7 0.0
19/03:00pm 12.4 7.8 6.7 68 2.7 S 20 26 11 14 1025.8 1025.8 0.0
19/02:30pm 13.4 9.3 6.0 61 3.5 SSE 17 24 9 13 1025.5 1025.5 0.0
19/02:00pm 13.3 10.4 6.4 63 3.3 SE 11 19 6 10 1025.5 1025.5 0.0
19/01:30pm 12.8 8.5 7.7 71 2.5 S 20 26 11 14 1025.6 1025.6 0.0
19/01:00pm 13.9 10.4 5.5 57 4.0 SSE 13 22 7 12 1025.8 1025.8 0.0
19/12:30pm 12.6 8.0 5.8 63 3.2 S 19 26 10 14 1026.1 1026.1 0.0
19/12:00pm 12.9 9.7 6.9 67 2.9 S 13 19 7 10 1026.5 1026.5 0.0
19/11:30am 12.7 9.5 4.9 59 3.6 SSE 11 15 6 8 1026.8 1026.8 0.0
19/11:00am 11.9 8.0 5.3 64 3.0 S 15 26 8 14 1027.0 1027.0 0.0
19/10:30am 12.1 8.6 5.3 63 3.1 S 13 19 7 10 1027.1 1027.1 0.0
19/10:00am 11.9 9.2 5.8 66 2.8 S 9 15 5 8 1027.1 - 0.0
19/09:30am 11.5 7.9 6.8 73 2.2 S 15 20 8 11 1027.2 1027.2 0.0
19/09:00am 11.0 8.4 6.0 71 2.3 SSE 9 13 5 7 1027.2 1027.2 0.2
19/08:30am 10.3 8.8 7.0 80 1.5 S 4 6 2 3 1026.7 1026.7 0.2
19/08:00am 9.6 7.8 7.2 85 1.1 SSE 6 7 3 4 1026.6 - 0.2
19/07:30am 8.7 7.6 7.0 89 0.8 ESE 2 4 1 2 1026.5 1026.5 0.2
19/07:00am 8.8 7.7 6.8 87 0.9 ESE 2 4 1 2 1026.0 - 0.2
19/06:30am 8.7 6.3 7.2 90 0.7 E 9 13 5 7 1025.8 1025.8 0.2
19/06:00am 8.2 7.1 6.8 91 0.6 SSW 2 4 1 2 1025.5 1025.5 0.2
19/05:30am 8.3 6.8 6.9 91 0.6 S 4 9 2 5 1025.4 1025.4 0.2
19/05:00am 8.3 5.9 7.1 92 0.6 SW 9 11 5 6 1025.4 - 0.2
19/04:30am 7.7 5.7 6.3 91 0.6 SE 6 9 3 5 1025.3 1025.3 0.2
19/04:00am 7.7 6.2 6.6 93 0.5 SSE 4 9 2 5 1025.1 - 0.2
19/03:30am 7.6 6.0 6.4 92 0.5 WSW 4 6 2 3 1025.3 1025.3 0.2
19/03:00am 7.9 7.1 6.7 92 0.5 CALM 0 0 0 0 1025.4 1025.4 0.2
19/02:30am 8.6 7.6 7.2 91 0.7 WSW 2 4 1 2 1025.4 1025.4 0.2
19/02:00am 8.9 7.2 7.4 90 0.7 SE 6 11 3 6 1025.7 - 0.2
19/01:30am 8.9 6.2 7.4 90 0.7 SE 11 15 6 8 1025.9 1025.9 0.0
19/01:00am 8.7 6.7 6.3 85 1.1 E 6 9 3 5 1025.7 - 0.0
19/12:30am 8.2 6.1 6.7 90 0.7 SE 7 15 4 8 1025.8 1025.8 0.0
19/12:00am 6.6 4.3 4.9 89 0.7 ESE 6 9 3 5 1026.0 1026.0 0.0
 
Date/Time
CST
Temp
°C
App
Temp
°C
Dew
Point
Rel
Hum
%
Delta-T
°C
Wind Press
QNH
hPa
Press
MSL
hPa
Rain
since 9 am
mm
Dir
 
Spd
km/h
Gust
km/h
Spd
kts
Gust
kts
18/11:30pm 7.7 6.3 5.5 86 1.0 ESE 2 4 1 2 1025.8 1025.8 0.0
18/11:00pm 8.8 6.8 6.3 84 1.1 ESE 6 9 3 5 1025.9 - 0.0
18/10:30pm 9.2 7.1 6.8 85 1.1 SSE 7 13 4 7 1026.1 1026.1 0.0
18/10:00pm 9.3 6.6 7.4 88 0.9 SSE 11 20 6 11 1026.0 - 0.0
18/09:30pm 9.6 7.4 6.0 78 1.6 SE 7 13 4 7 1025.9 1025.9 0.0
18/09:00pm 9.0 5.7 6.4 84 1.2 SE 13 20 7 11 1026.0 1026.0 0.0
18/08:30pm 8.8 6.8 6.1 83 1.2 ESE 6 11 3 6 1025.8 1025.8 0.0
18/08:00pm 10.2 7.5 5.6 73 2.1 SE 9 15 5 8 1025.6 - 0.0
18/07:30pm 10.1 6.4 6.4 78 1.7 S 15 20 8 11 1025.5 1025.5 0.0
18/07:00pm 9.8 7.5 7.4 85 1.1 S 9 19 5 10 1025.3 - 0.0
18/06:30pm 9.7 6.8 6.6 81 1.4 SSW 11 19 6 10 1024.9 1024.9 0.0
18/06:00pm 10.5 6.1 6.6 77 1.8 SSE 19 26 10 14 1024.5 1024.5 0.0
18/05:30pm 10.5 8.5 7.2 80 1.6 SE 7 11 4 6 1024.2 1024.2 0.0
18/05:00pm 10.8 7.1 6.4 74 2.1 SSE 15 20 8 11 1024.0 - 0.0
18/04:30pm 11.7 8.0 6.4 70 2.5 SSE 15 22 8 12 1023.8 1023.8 0.0
18/04:00pm 11.7 7.6 6.4 70 2.5 S 17 28 9 15 1023.6 - 0.0
18/03:30pm 11.7 8.9 7.0 73 2.2 SSE 11 17 6 9 1023.5 1023.5 0.0
18/03:00pm 11.8 7.9 6.9 72 2.3 SSE 17 28 9 15 1023.4 1023.4 0.0
18/02:30pm 12.4 9.7 7.3 71 2.5 SSE 11 15 6 8 1023.3 1023.3 0.0
18/02:00pm 12.0 9.5 6.5 69 2.6 SSE 9 19 5 10 1023.4 - 0.0
18/01:30pm 11.8 7.7 7.7 76 2.0 SE 19 30 10 16 1023.5 1023.5 0.0
18/01:00pm 12.8 9.5 6.6 66 3.0 SSE 13 20 7 11 1023.6 - 0.0
18/12:30pm 12.0 9.7 7.3 73 2.3 SSW 9 11 5 6 1024.2 1024.2 0.0
18/12:00pm 12.1 8.8 6.4 68 2.7 SSE 13 17 7 9 1024.4 1024.4 0.0

Other Formats:

Comma delimited format used in spreadsheet applications
http://www.bom.gov.au/fwo/IDS60801/IDS60801.95816.axf

JavaScript Object Notation format (JSON) in row-major order
http://www.bom.gov.au/fwo/IDS60801/IDS60801.95816.json